sensor_id;sensor_type;location;lat;lon;timestamp;P1;durP1;ratioP1;P2;durP2;ratioP2
75054;SDS011;63636;44.746;10.488;2022-12-05T00:01:38;34.28;;;16.63;;
75054;SDS011;63636;44.746;10.488;2022-12-05T00:04:06;31.92;;;15.93;;
75054;SDS011;63636;44.746;10.488;2022-12-05T00:06:32;32.55;;;16.27;;
75054;SDS011;63636;44.746;10.488;2022-12-05T00:08:58;32.55;;;16.65;;
75054;SDS011;63636;44.746;10.488;2022-12-05T00:11:27;32.83;;;16.40;;
75054;SDS011;63636;44.746;10.488;2022-12-05T00:13:53;37.55;;;17.77;;
75054;SDS011;63636;44.746;10.488;2022-12-05T00:16:20;37.55;;;17.52;;
75054;SDS011;63636;44.746;10.488;2022-12-05T00:18:46;37.22;;;16.83;;
75054;SDS011;63636;44.746;10.488;2022-12-05T00:21:13;34.38;;;16.45;;
75054;SDS011;63636;44.746;10.488;2022-12-05T00:23:39;37.70;;;16.98;;
75054;SDS011;63636;44.746;10.488;2022-12-05T00:26:05;36.35;;;16.23;;
75054;SDS011;63636;44.746;10.488;2022-12-05T00:28:31;37.15;;;16.58;;
75054;SDS011;63636;44.746;10.488;2022-12-05T00:31:00;38.28;;;17.95;;
75054;SDS011;63636;44.746;10.488;2022-12-05T00:33:26;38.85;;;17.83;;
75054;SDS011;63636;44.746;10.488;2022-12-05T00:35:51;39.33;;;17.27;;
75054;SDS011;63636;44.746;10.488;2022-12-05T00:38:17;42.60;;;18.23;;
75054;SDS011;63636;44.746;10.488;2022-12-05T00:40:42;40.83;;;17.98;;
75054;SDS011;63636;44.746;10.488;2022-12-05T00:43:08;42.60;;;18.95;;
75054;SDS011;63636;44.746;10.488;2022-12-05T00:45:33;45.25;;;18.48;;
75054;SDS011;63636;44.746;10.488;2022-12-05T00:47:59;40.58;;;17.80;;
75054;SDS011;63636;44.746;10.488;2022-12-05T00:50:24;40.78;;;17.45;;
75054;SDS011;63636;44.746;10.488;2022-12-05T00:52:50;38.65;;;17.20;;
75054;SDS011;63636;44.746;10.488;2022-12-05T00:55:16;39.03;;;17.38;;
75054;SDS011;63636;44.746;10.488;2022-12-05T00:57:41;41.65;;;17.15;;
75054;SDS011;63636;44.746;10.488;2022-12-05T01:00:07;41.80;;;17.33;;
75054;SDS011;63636;44.746;10.488;2022-12-05T01:02:33;44.97;;;17.48;;
75054;SDS011;63636;44.746;10.488;2022-12-05T01:04:58;43.40;;;17.45;;
75054;SDS011;63636;44.746;10.488;2022-12-05T01:07:24;46.38;;;19.50;;
75054;SDS011;63636;44.746;10.488;2022-12-05T01:09:49;49.38;;;19.10;;
75054;SDS011;63636;44.746;10.488;2022-12-05T01:12:15;49.45;;;19.98;;
75054;SDS011;63636;44.746;10.488;2022-12-05T01:14:41;44.42;;;18.33;;
75054;SDS011;63636;44.746;10.488;2022-12-05T01:17:06;48.20;;;18.73;;
75054;SDS011;63636;44.746;10.488;2022-12-05T01:19:32;46.83;;;18.35;;
75054;SDS011;63636;44.746;10.488;2022-12-05T01:21:57;48.53;;;19.30;;
75054;SDS011;63636;44.746;10.488;2022-12-05T01:24:24;47.17;;;18.20;;
75054;SDS011;63636;44.746;10.488;2022-12-05T01:26:49;49.28;;;19.05;;
75054;SDS011;63636;44.746;10.488;2022-12-05T01:29:16;54.40;;;18.33;;
75054;SDS011;63636;44.746;10.488;2022-12-05T01:31:42;49.60;;;18.23;;
75054;SDS011;63636;44.746;10.488;2022-12-05T01:34:10;49.38;;;18.42;;
75054;SDS011;63636;44.746;10.488;2022-12-05T01:36:36;43.50;;;16.42;;
75054;SDS011;63636;44.746;10.488;2022-12-05T01:39:04;43.17;;;15.85;;
75054;SDS011;63636;44.746;10.488;2022-12-05T01:41:35;39.22;;;15.25;;
75054;SDS011;63636;44.746;10.488;2022-12-05T01:44:02;40.88;;;14.88;;
75054;SDS011;63636;44.746;10.488;2022-12-05T01:46:30;39.63;;;15.50;;
75054;SDS011;63636;44.746;10.488;2022-12-05T01:48:57;38.55;;;14.13;;
75054;SDS011;63636;44.746;10.488;2022-12-05T01:51:24;38.53;;;14.75;;
75054;SDS011;63636;44.746;10.488;2022-12-05T01:53:50;32.95;;;13.20;;
75054;SDS011;63636;44.746;10.488;2022-12-05T01:56:15;35.08;;;13.48;;
75054;SDS011;63636;44.746;10.488;2022-12-05T01:58:42;31.65;;;11.98;;
75054;SDS011;63636;44.746;10.488;2022-12-05T02:01:08;31.10;;;11.13;;
75054;SDS011;63636;44.746;10.488;2022-12-05T02:03:34;27.83;;;10.18;;
75054;SDS011;63636;44.746;10.488;2022-12-05T02:06:02;27.20;;;10.57;;
75054;SDS011;63636;44.746;10.488;2022-12-05T02:08:27;29.35;;;11.00;;
75054;SDS011;63636;44.746;10.488;2022-12-05T02:10:53;25.77;;;10.63;;
75054;SDS011;63636;44.746;10.488;2022-12-05T02:15:53;28.95;;;10.88;;
75054;SDS011;63636;44.746;10.488;2022-12-05T02:18:34;28.63;;;10.80;;
75054;SDS011;63636;44.746;10.488;2022-12-05T02:33:57;29.73;;;11.80;;
75054;SDS011;63636;44.746;10.488;2022-12-05T02:36:27;29.75;;;12.40;;
75054;SDS011;63636;44.746;10.488;2022-12-05T02:39:02;34.45;;;13.88;;
75054;SDS011;63636;44.746;10.488;2022-12-05T02:41:36;32.45;;;13.43;;
75054;SDS011;63636;44.746;10.488;2022-12-05T02:44:12;32.95;;;13.02;;
75054;SDS011;63636;44.746;10.488;2022-12-05T02:46:39;32.28;;;13.25;;
75054;SDS011;63636;44.746;10.488;2022-12-05T02:49:09;31.48;;;13.05;;
75054;SDS011;63636;44.746;10.488;2022-12-05T02:51:44;36.88;;;14.20;;
75054;SDS011;63636;44.746;10.488;2022-12-05T02:54:12;32.35;;;13.10;;
75054;SDS011;63636;44.746;10.488;2022-12-05T02:56:38;33.03;;;12.55;;
75054;SDS011;63636;44.746;10.488;2022-12-05T02:59:05;28.85;;;11.95;;
75054;SDS011;63636;44.746;10.488;2022-12-05T03:01:30;31.23;;;11.65;;
75054;SDS011;63636;44.746;10.488;2022-12-05T03:03:58;32.08;;;13.27;;
75054;SDS011;63636;44.746;10.488;2022-12-05T03:06:27;32.03;;;12.00;;
75054;SDS011;63636;44.746;10.488;2022-12-05T03:08:58;34.85;;;12.75;;
75054;SDS011;63636;44.746;10.488;2022-12-05T03:11:25;33.13;;;12.45;;
75054;SDS011;63636;44.746;10.488;2022-12-05T03:13:54;32.75;;;12.60;;
75054;SDS011;63636;44.746;10.488;2022-12-05T03:16:36;31.48;;;12.60;;
75054;SDS011;63636;44.746;10.488;2022-12-05T03:19:05;32.05;;;12.05;;
75054;SDS011;63636;44.746;10.488;2022-12-05T03:21:34;32.72;;;13.52;;
75054;SDS011;63636;44.746;10.488;2022-12-05T03:24:05;35.28;;;13.13;;
75054;SDS011;63636;44.746;10.488;2022-12-05T03:26:52;32.53;;;13.57;;
75054;SDS011;63636;44.746;10.488;2022-12-05T03:29:21;31.08;;;12.90;;
75054;SDS011;63636;44.746;10.488;2022-12-05T03:34:19;35.65;;;14.00;;
75054;SDS011;63636;44.746;10.488;2022-12-05T03:36:48;35.70;;;14.40;;
75054;SDS011;63636;44.746;10.488;2022-12-05T03:39:20;39.17;;;15.68;;
75054;SDS011;63636;44.746;10.488;2022-12-05T03:42:08;37.90;;;14.27;;
75054;SDS011;63636;44.746;10.488;2022-12-05T03:51:55;39.97;;;15.00;;
75054;SDS011;63636;44.746;10.488;2022-12-05T03:54:26;36.65;;;14.98;;
75054;SDS011;63636;44.746;10.488;2022-12-05T03:56:58;40.80;;;14.32;;
75054;SDS011;63636;44.746;10.488;2022-12-05T04:01:54;37.00;;;14.75;;
75054;SDS011;63636;44.746;10.488;2022-12-05T04:04:23;41.58;;;15.73;;
75054;SDS011;63636;44.746;10.488;2022-12-05T04:06:50;38.10;;;15.23;;
75054;SDS011;63636;44.746;10.488;2022-12-05T04:09:20;41.60;;;15.02;;
75054;SDS011;63636;44.746;10.488;2022-12-05T04:11:49;46.80;;;16.10;;
75054;SDS011;63636;44.746;10.488;2022-12-05T04:14:18;43.88;;;15.45;;
75054;SDS011;63636;44.746;10.488;2022-12-05T04:16:56;49.25;;;15.98;;
75054;SDS011;63636;44.746;10.488;2022-12-05T04:19:38;42.17;;;15.00;;
75054;SDS011;63636;44.746;10.488;2022-12-05T04:22:24;46.25;;;15.77;;
75054;SDS011;63636;44.746;10.488;2022-12-05T04:24:50;46.67;;;15.43;;
75054;SDS011;63636;44.746;10.488;2022-12-05T04:38:28;49.35;;;16.08;;
75054;SDS011;63636;44.746;10.488;2022-12-05T04:40:59;47.47;;;16.48;;
75054;SDS011;63636;44.746;10.488;2022-12-05T04:43:26;48.33;;;15.68;;
75054;SDS011;63636;44.746;10.488;2022-12-05T04:45:56;46.50;;;15.82;;
75054;SDS011;63636;44.746;10.488;2022-12-05T04:48:30;50.30;;;15.73;;
75054;SDS011;63636;44.746;10.488;2022-12-05T04:50:59;51.40;;;17.23;;
75054;SDS011;63636;44.746;10.488;2022-12-05T04:53:27;48.25;;;16.52;;
75054;SDS011;63636;44.746;10.488;2022-12-05T04:55:54;48.33;;;15.52;;
75054;SDS011;63636;44.746;10.488;2022-12-05T04:58:22;51.08;;;15.85;;
75054;SDS011;63636;44.746;10.488;2022-12-05T05:05:46;52.50;;;16.52;;
75054;SDS011;63636;44.746;10.488;2022-12-05T05:08:20;46.22;;;15.68;;
75054;SDS011;63636;44.746;10.488;2022-12-05T05:13:30;55.25;;;16.17;;
75054;SDS011;63636;44.746;10.488;2022-12-05T05:15:55;58.83;;;18.50;;
75054;SDS011;63636;44.746;10.488;2022-12-05T05:18:21;57.65;;;18.40;;
75054;SDS011;63636;44.746;10.488;2022-12-05T05:20:46;52.97;;;17.45;;
75054;SDS011;63636;44.746;10.488;2022-12-05T05:23:12;49.80;;;16.90;;
75054;SDS011;63636;44.746;10.488;2022-12-05T05:25:38;54.05;;;17.00;;
75054;SDS011;63636;44.746;10.488;2022-12-05T05:28:04;53.15;;;17.30;;
75054;SDS011;63636;44.746;10.488;2022-12-05T05:30:29;57.75;;;18.75;;
75054;SDS011;63636;44.746;10.488;2022-12-05T05:32:55;59.88;;;17.65;;
75054;SDS011;63636;44.746;10.488;2022-12-05T05:35:21;53.78;;;16.95;;
75054;SDS011;63636;44.746;10.488;2022-12-05T05:37:46;56.42;;;17.48;;
75054;SDS011;63636;44.746;10.488;2022-12-05T05:40:12;53.13;;;17.52;;
75054;SDS011;63636;44.746;10.488;2022-12-05T05:42:44;51.70;;;16.45;;
75054;SDS011;63636;44.746;10.488;2022-12-05T05:45:11;54.50;;;17.02;;
75054;SDS011;63636;44.746;10.488;2022-12-05T05:47:37;47.78;;;16.05;;
75054;SDS011;63636;44.746;10.488;2022-12-05T05:50:03;53.47;;;16.42;;
75054;SDS011;63636;44.746;10.488;2022-12-05T05:52:30;50.60;;;16.83;;
75054;SDS011;63636;44.746;10.488;2022-12-05T05:54:56;51.95;;;17.27;;
75054;SDS011;63636;44.746;10.488;2022-12-05T05:57:21;53.53;;;17.58;;
75054;SDS011;63636;44.746;10.488;2022-12-05T05:59:47;56.95;;;17.75;;
75054;SDS011;63636;44.746;10.488;2022-12-05T06:02:12;54.63;;;18.25;;
75054;SDS011;63636;44.746;10.488;2022-12-05T06:04:38;48.83;;;16.75;;
75054;SDS011;63636;44.746;10.488;2022-12-05T06:07:04;45.97;;;16.00;;
75054;SDS011;63636;44.746;10.488;2022-12-05T06:09:29;45.92;;;15.23;;
75054;SDS011;63636;44.746;10.488;2022-12-05T06:11:55;54.42;;;17.65;;
75054;SDS011;63636;44.746;10.488;2022-12-05T06:14:20;53.13;;;16.60;;
75054;SDS011;63636;44.746;10.488;2022-12-05T06:16:46;51.95;;;18.33;;
75054;SDS011;63636;44.746;10.488;2022-12-05T06:19:11;49.88;;;17.95;;
75054;SDS011;63636;44.746;10.488;2022-12-05T06:21:37;51.45;;;16.73;;
75054;SDS011;63636;44.746;10.488;2022-12-05T06:24:02;46.10;;;16.17;;
75054;SDS011;63636;44.746;10.488;2022-12-05T06:26:28;44.20;;;15.38;;
75054;SDS011;63636;44.746;10.488;2022-12-05T06:28:53;46.30;;;16.25;;
75054;SDS011;63636;44.746;10.488;2022-12-05T06:31:20;46.13;;;15.10;;
75054;SDS011;63636;44.746;10.488;2022-12-05T06:33:46;43.72;;;15.13;;
75054;SDS011;63636;44.746;10.488;2022-12-05T06:36:12;49.97;;;16.83;;
75054;SDS011;63636;44.746;10.488;2022-12-05T06:38:38;40.67;;;14.23;;
75054;SDS011;63636;44.746;10.488;2022-12-05T06:41:05;38.75;;;13.43;;
75054;SDS011;63636;44.746;10.488;2022-12-05T06:43:31;38.83;;;13.25;;
75054;SDS011;63636;44.746;10.488;2022-12-05T06:45:56;35.67;;;12.40;;
75054;SDS011;63636;44.746;10.488;2022-12-05T06:48:22;38.85;;;13.23;;
75054;SDS011;63636;44.746;10.488;2022-12-05T06:50:48;40.03;;;14.05;;
75054;SDS011;63636;44.746;10.488;2022-12-05T06:53:14;40.63;;;13.82;;
75054;SDS011;63636;44.746;10.488;2022-12-05T06:55:40;39.97;;;14.48;;
75054;SDS011;63636;44.746;10.488;2022-12-05T06:58:05;39.65;;;14.32;;
75054;SDS011;63636;44.746;10.488;2022-12-05T07:00:31;42.42;;;15.25;;
75054;SDS011;63636;44.746;10.488;2022-12-05T07:03:15;39.60;;;14.63;;
75054;SDS011;63636;44.746;10.488;2022-12-05T07:05:40;43.08;;;15.05;;
75054;SDS011;63636;44.746;10.488;2022-12-05T07:08:06;35.78;;;13.98;;
75054;SDS011;63636;44.746;10.488;2022-12-05T07:10:31;39.83;;;14.45;;
75054;SDS011;63636;44.746;10.488;2022-12-05T07:12:57;46.22;;;14.55;;
75054;SDS011;63636;44.746;10.488;2022-12-05T07:15:22;47.08;;;15.10;;
75054;SDS011;63636;44.746;10.488;2022-12-05T07:17:49;42.17;;;14.93;;
75054;SDS011;63636;44.746;10.488;2022-12-05T07:20:14;40.60;;;14.10;;
75054;SDS011;63636;44.746;10.488;2022-12-05T07:22:42;47.10;;;15.05;;
75054;SDS011;63636;44.746;10.488;2022-12-05T07:25:07;42.97;;;14.23;;
75054;SDS011;63636;44.746;10.488;2022-12-05T07:27:33;41.00;;;13.70;;
75054;SDS011;63636;44.746;10.488;2022-12-05T07:29:58;39.22;;;14.60;;
75054;SDS011;63636;44.746;10.488;2022-12-05T07:32:24;40.17;;;13.75;;
75054;SDS011;63636;44.746;10.488;2022-12-05T07:34:50;36.95;;;12.88;;
75054;SDS011;63636;44.746;10.488;2022-12-05T07:37:15;34.17;;;12.07;;
75054;SDS011;63636;44.746;10.488;2022-12-05T07:39:41;36.65;;;12.63;;
75054;SDS011;63636;44.746;10.488;2022-12-05T07:42:06;40.83;;;13.90;;
75054;SDS011;63636;44.746;10.488;2022-12-05T07:44:32;41.60;;;13.63;;
75054;SDS011;63636;44.746;10.488;2022-12-05T07:46:57;38.08;;;13.68;;
75054;SDS011;63636;44.746;10.488;2022-12-05T07:49:23;38.83;;;12.88;;
75054;SDS011;63636;44.746;10.488;2022-12-05T07:51:48;41.42;;;12.90;;
75054;SDS011;63636;44.746;10.488;2022-12-05T07:54:14;38.42;;;13.20;;
75054;SDS011;63636;44.746;10.488;2022-12-05T07:56:40;40.72;;;13.57;;
75054;SDS011;63636;44.746;10.488;2022-12-05T07:59:05;36.78;;;13.18;;
75054;SDS011;63636;44.746;10.488;2022-12-05T08:01:30;40.75;;;13.38;;
75054;SDS011;63636;44.746;10.488;2022-12-05T08:03:57;36.40;;;12.55;;
75054;SDS011;63636;44.746;10.488;2022-12-05T08:06:24;36.75;;;12.57;;
75054;SDS011;63636;44.746;10.488;2022-12-05T08:08:51;38.05;;;12.98;;
75054;SDS011;63636;44.746;10.488;2022-12-05T08:11:24;38.70;;;13.07;;
75054;SDS011;63636;44.746;10.488;2022-12-05T08:13:51;42.53;;;13.55;;
75054;SDS011;63636;44.746;10.488;2022-12-05T08:16:18;42.67;;;14.02;;
75054;SDS011;63636;44.746;10.488;2022-12-05T08:18:43;45.78;;;14.65;;
75054;SDS011;63636;44.746;10.488;2022-12-05T08:21:10;42.05;;;13.45;;
75054;SDS011;63636;44.746;10.488;2022-12-05T08:23:37;45.50;;;14.70;;
75054;SDS011;63636;44.746;10.488;2022-12-05T08:26:03;48.47;;;16.77;;
75054;SDS011;63636;44.746;10.488;2022-12-05T08:28:29;50.05;;;14.95;;
75054;SDS011;63636;44.746;10.488;2022-12-05T08:33:47;46.92;;;15.07;;
75054;SDS011;63636;44.746;10.488;2022-12-05T08:36:13;49.20;;;17.10;;
75054;SDS011;63636;44.746;10.488;2022-12-05T08:38:42;49.25;;;16.17;;
75054;SDS011;63636;44.746;10.488;2022-12-05T08:41:09;57.83;;;18.38;;
75054;SDS011;63636;44.746;10.488;2022-12-05T08:43:35;54.97;;;18.15;;
75054;SDS011;63636;44.746;10.488;2022-12-05T08:46:01;60.42;;;19.48;;
75054;SDS011;63636;44.746;10.488;2022-12-05T08:48:27;56.45;;;18.50;;
75054;SDS011;63636;44.746;10.488;2022-12-05T08:50:53;59.50;;;18.60;;
75054;SDS011;63636;44.746;10.488;2022-12-05T08:53:19;65.47;;;19.38;;
75054;SDS011;63636;44.746;10.488;2022-12-05T08:55:45;53.03;;;18.40;;
75054;SDS011;63636;44.746;10.488;2022-12-05T08:58:11;55.10;;;17.70;;
75054;SDS011;63636;44.746;10.488;2022-12-05T09:00:40;49.50;;;18.15;;
75054;SDS011;63636;44.746;10.488;2022-12-05T09:03:06;46.30;;;17.35;;
75054;SDS011;63636;44.746;10.488;2022-12-05T09:05:31;45.47;;;16.73;;
75054;SDS011;63636;44.746;10.488;2022-12-05T09:07:57;44.83;;;15.85;;
75054;SDS011;63636;44.746;10.488;2022-12-05T09:10:25;44.97;;;15.98;;
75054;SDS011;63636;44.746;10.488;2022-12-05T09:12:50;40.92;;;15.50;;
75054;SDS011;63636;44.746;10.488;2022-12-05T09:15:16;47.30;;;15.68;;
75054;SDS011;63636;44.746;10.488;2022-12-05T09:17:44;43.22;;;15.85;;
75054;SDS011;63636;44.746;10.488;2022-12-05T09:20:09;46.83;;;17.17;;
75054;SDS011;63636;44.746;10.488;2022-12-05T09:22:38;51.08;;;18.40;;
75054;SDS011;63636;44.746;10.488;2022-12-05T09:25:04;48.70;;;17.42;;
75054;SDS011;63636;44.746;10.488;2022-12-05T09:27:30;47.42;;;17.30;;
75054;SDS011;63636;44.746;10.488;2022-12-05T09:29:55;59.35;;;21.20;;
75054;SDS011;63636;44.746;10.488;2022-12-05T09:32:21;49.78;;;18.33;;
75054;SDS011;63636;44.746;10.488;2022-12-05T09:34:46;46.45;;;17.27;;
75054;SDS011;63636;44.746;10.488;2022-12-05T09:37:12;40.50;;;14.93;;
75054;SDS011;63636;44.746;10.488;2022-12-05T09:39:37;43.63;;;15.10;;
75054;SDS011;63636;44.746;10.488;2022-12-05T09:42:07;47.00;;;16.38;;
75054;SDS011;63636;44.746;10.488;2022-12-05T09:47:03;41.05;;;15.48;;
75054;SDS011;63636;44.746;10.488;2022-12-05T09:49:33;42.60;;;15.38;;
75054;SDS011;63636;44.746;10.488;2022-12-05T09:52:02;43.35;;;16.23;;
75054;SDS011;63636;44.746;10.488;2022-12-05T09:54:30;46.22;;;16.63;;
75054;SDS011;63636;44.746;10.488;2022-12-05T09:56:56;46.45;;;16.33;;
75054;SDS011;63636;44.746;10.488;2022-12-05T09:59:21;47.03;;;17.63;;
75054;SDS011;63636;44.746;10.488;2022-12-05T10:02:31;44.63;;;16.63;;
75054;SDS011;63636;44.746;10.488;2022-12-05T10:09:59;41.72;;;14.93;;
75054;SDS011;63636;44.746;10.488;2022-12-05T10:15:00;37.22;;;13.60;;
75054;SDS011;63636;44.746;10.488;2022-12-05T10:17:33;34.97;;;13.88;;
75054;SDS011;63636;44.746;10.488;2022-12-05T10:20:01;38.33;;;14.55;;
75054;SDS011;63636;44.746;10.488;2022-12-05T10:22:29;38.03;;;14.52;;
75054;SDS011;63636;44.746;10.488;2022-12-05T10:24:59;37.63;;;14.07;;
75054;SDS011;63636;44.746;10.488;2022-12-05T10:27:35;40.08;;;14.27;;
75054;SDS011;63636;44.746;10.488;2022-12-05T10:32:29;36.40;;;14.13;;
75054;SDS011;63636;44.746;10.488;2022-12-05T10:34:59;37.20;;;13.80;;
75054;SDS011;63636;44.746;10.488;2022-12-05T10:37:26;37.72;;;14.05;;
75054;SDS011;63636;44.746;10.488;2022-12-05T10:39:55;39.35;;;13.80;;
75054;SDS011;63636;44.746;10.488;2022-12-05T10:42:26;36.88;;;14.05;;
75054;SDS011;63636;44.746;10.488;2022-12-05T10:44:58;39.22;;;14.68;;
75054;SDS011;63636;44.746;10.488;2022-12-05T10:47:25;39.80;;;14.90;;
75054;SDS011;63636;44.746;10.488;2022-12-05T10:49:50;35.88;;;13.00;;
75054;SDS011;63636;44.746;10.488;2022-12-05T10:52:17;37.58;;;12.80;;
75054;SDS011;63636;44.746;10.488;2022-12-05T10:54:46;38.00;;;14.23;;
75054;SDS011;63636;44.746;10.488;2022-12-05T10:57:21;34.80;;;13.18;;
75054;SDS011;63636;44.746;10.488;2022-12-05T10:59:46;36.40;;;13.05;;
75054;SDS011;63636;44.746;10.488;2022-12-05T11:02:17;33.67;;;13.18;;
75054;SDS011;63636;44.746;10.488;2022-12-05T11:04:45;36.63;;;14.15;;
75054;SDS011;63636;44.746;10.488;2022-12-05T11:09:48;35.33;;;14.30;;
75054;SDS011;63636;44.746;10.488;2022-12-05T11:14:39;45.75;;;14.93;;
75054;SDS011;63636;44.746;10.488;2022-12-05T11:17:21;38.17;;;14.75;;
75054;SDS011;63636;44.746;10.488;2022-12-05T11:19:47;42.22;;;15.13;;
75054;SDS011;63636;44.746;10.488;2022-12-05T11:22:15;45.58;;;15.77;;
75054;SDS011;63636;44.746;10.488;2022-12-05T11:24:41;44.65;;;16.52;;
75054;SDS011;63636;44.746;10.488;2022-12-05T11:29:41;41.30;;;14.98;;
75054;SDS011;63636;44.746;10.488;2022-12-05T11:32:18;39.63;;;14.82;;
75054;SDS011;63636;44.746;10.488;2022-12-05T11:34:49;39.03;;;14.88;;
75054;SDS011;63636;44.746;10.488;2022-12-05T11:37:21;39.50;;;15.25;;
75054;SDS011;63636;44.746;10.488;2022-12-05T11:39:48;46.33;;;17.27;;
75054;SDS011;63636;44.746;10.488;2022-12-05T11:47:55;49.80;;;16.67;;
75054;SDS011;63636;44.746;10.488;2022-12-05T11:50:31;41.80;;;15.43;;
75054;SDS011;63636;44.746;10.488;2022-12-05T11:58:00;42.30;;;16.35;;
75054;SDS011;63636;44.746;10.488;2022-12-05T12:00:36;43.72;;;16.55;;
75054;SDS011;63636;44.746;10.488;2022-12-05T12:13:27;49.80;;;17.90;;
75054;SDS011;63636;44.746;10.488;2022-12-05T12:16:59;49.50;;;17.80;;
75054;SDS011;63636;44.746;10.488;2022-12-05T12:27:21;47.50;;;17.52;;
75054;SDS011;63636;44.746;10.488;2022-12-05T12:29:19;47.15;;;18.08;;
75054;SDS011;63636;44.746;10.488;2022-12-05T12:32:10;48.22;;;18.00;;
75054;SDS011;63636;44.746;10.488;2022-12-05T12:34:48;45.75;;;17.08;;
75054;SDS011;63636;44.746;10.488;2022-12-05T12:40:19;51.08;;;17.85;;
75054;SDS011;63636;44.746;10.488;2022-12-05T12:43:00;40.95;;;15.23;;
75054;SDS011;63636;44.746;10.488;2022-12-05T12:50:42;42.22;;;16.27;;
75054;SDS011;63636;44.746;10.488;2022-12-05T13:00:55;40.22;;;15.82;;
75054;SDS011;63636;44.746;10.488;2022-12-05T13:03:36;41.00;;;16.05;;
75054;SDS011;63636;44.746;10.488;2022-12-05T13:06:12;41.45;;;16.13;;
75054;SDS011;63636;44.746;10.488;2022-12-05T13:11:07;37.47;;;14.88;;
75054;SDS011;63636;44.746;10.488;2022-12-05T13:13:37;36.08;;;14.13;;
75054;SDS011;63636;44.746;10.488;2022-12-05T13:16:05;36.15;;;14.38;;
75054;SDS011;63636;44.746;10.488;2022-12-05T13:18:32;34.63;;;14.18;;
75054;SDS011;63636;44.746;10.488;2022-12-05T13:20:58;41.67;;;15.30;;
75054;SDS011;63636;44.746;10.488;2022-12-05T13:23:26;40.88;;;14.90;;
75054;SDS011;63636;44.746;10.488;2022-12-05T13:25:53;36.88;;;14.77;;
75054;SDS011;63636;44.746;10.488;2022-12-05T13:30:51;37.47;;;15.07;;
75054;SDS011;63636;44.746;10.488;2022-12-05T13:33:34;37.88;;;14.38;;
75054;SDS011;63636;44.746;10.488;2022-12-05T13:36:20;38.90;;;14.77;;
75054;SDS011;63636;44.746;10.488;2022-12-05T13:39:05;39.22;;;14.63;;
75054;SDS011;63636;44.746;10.488;2022-12-05T13:41:50;37.25;;;14.95;;
75054;SDS011;63636;44.746;10.488;2022-12-05T13:44:37;37.33;;;14.50;;
75054;SDS011;63636;44.746;10.488;2022-12-05T13:47:03;37.38;;;14.57;;
75054;SDS011;63636;44.746;10.488;2022-12-05T13:49:34;37.85;;;15.00;;
75054;SDS011;63636;44.746;10.488;2022-12-05T13:52:05;40.85;;;14.90;;
75054;SDS011;63636;44.746;10.488;2022-12-05T13:54:31;38.70;;;15.30;;
75054;SDS011;63636;44.746;10.488;2022-12-05T13:57:00;39.92;;;14.80;;
75054;SDS011;63636;44.746;10.488;2022-12-05T14:04:55;44.33;;;16.25;;
75054;SDS011;63636;44.746;10.488;2022-12-05T14:10:05;45.85;;;16.92;;
75054;SDS011;63636;44.746;10.488;2022-12-05T14:15:25;52.90;;;19.27;;
75054;SDS011;63636;44.746;10.488;2022-12-05T14:17:54;58.88;;;19.27;;
75054;SDS011;63636;44.746;10.488;2022-12-05T14:20:30;55.35;;;19.02;;
75054;SDS011;63636;44.746;10.488;2022-12-05T14:25:29;55.40;;;18.52;;
75054;SDS011;63636;44.746;10.488;2022-12-05T14:33:17;50.08;;;17.15;;
75054;SDS011;63636;44.746;10.488;2022-12-05T14:35:47;47.92;;;16.85;;
75054;SDS011;63636;44.746;10.488;2022-12-05T14:38:26;43.55;;;16.02;;
75054;SDS011;63636;44.746;10.488;2022-12-05T14:40:53;56.55;;;16.85;;
75054;SDS011;63636;44.746;10.488;2022-12-05T14:43:28;44.90;;;16.63;;
75054;SDS011;63636;44.746;10.488;2022-12-05T14:48:25;46.90;;;16.15;;
75054;SDS011;63636;44.746;10.488;2022-12-05T14:50:52;47.90;;;17.15;;
75054;SDS011;63636;44.746;10.488;2022-12-05T14:56:01;45.83;;;16.55;;
75054;SDS011;63636;44.746;10.488;2022-12-05T15:00:59;47.03;;;16.52;;
75054;SDS011;63636;44.746;10.488;2022-12-05T15:06:12;46.20;;;15.32;;
75054;SDS011;63636;44.746;10.488;2022-12-05T15:08:43;39.65;;;14.57;;
75054;SDS011;63636;44.746;10.488;2022-12-05T15:11:12;40.58;;;15.02;;
75054;SDS011;63636;44.746;10.488;2022-12-05T15:13:54;38.25;;;14.20;;
75054;SDS011;63636;44.746;10.488;2022-12-05T15:16:20;37.88;;;14.02;;
75054;SDS011;63636;44.746;10.488;2022-12-05T15:18:48;38.80;;;14.65;;
75054;SDS011;63636;44.746;10.488;2022-12-05T15:24:20;34.75;;;12.68;;
75054;SDS011;63636;44.746;10.488;2022-12-05T15:26:53;31.75;;;13.20;;
75054;SDS011;63636;44.746;10.488;2022-12-05T15:32:01;30.27;;;12.57;;
75054;SDS011;63636;44.746;10.488;2022-12-05T15:39:54;29.85;;;12.15;;
75054;SDS011;63636;44.746;10.488;2022-12-05T15:42:24;31.38;;;12.43;;
75054;SDS011;63636;44.746;10.488;2022-12-05T15:44:50;27.15;;;12.27;;
75054;SDS011;63636;44.746;10.488;2022-12-05T15:47:19;31.48;;;13.27;;
75054;SDS011;63636;44.746;10.488;2022-12-05T15:49:46;32.25;;;13.50;;
75054;SDS011;63636;44.746;10.488;2022-12-05T15:52:17;28.15;;;12.45;;
75054;SDS011;63636;44.746;10.488;2022-12-05T15:55:46;29.58;;;13.02;;
75054;SDS011;63636;44.746;10.488;2022-12-05T15:58:10;28.23;;;13.02;;
75054;SDS011;63636;44.746;10.488;2022-12-05T16:00:39;27.73;;;11.88;;
75054;SDS011;63636;44.746;10.488;2022-12-05T16:03:10;25.85;;;12.18;;
75054;SDS011;63636;44.746;10.488;2022-12-05T16:08:15;26.42;;;11.98;;
75054;SDS011;63636;44.746;10.488;2022-12-05T16:10:41;29.17;;;13.13;;
75054;SDS011;63636;44.746;10.488;2022-12-05T16:13:10;29.08;;;13.10;;
75054;SDS011;63636;44.746;10.488;2022-12-05T16:15:40;33.15;;;13.35;;
75054;SDS011;63636;44.746;10.488;2022-12-05T16:18:18;30.63;;;13.73;;
75054;SDS011;63636;44.746;10.488;2022-12-05T16:20:46;28.20;;;13.63;;
75054;SDS011;63636;44.746;10.488;2022-12-05T16:23:28;29.80;;;14.30;;
75054;SDS011;63636;44.746;10.488;2022-12-05T16:26:17;27.70;;;13.35;;
75054;SDS011;63636;44.746;10.488;2022-12-05T16:28:55;27.15;;;12.63;;
75054;SDS011;63636;44.746;10.488;2022-12-05T16:31:20;26.80;;;12.32;;
75054;SDS011;63636;44.746;10.488;2022-12-05T16:33:46;26.92;;;12.50;;
75054;SDS011;63636;44.746;10.488;2022-12-05T16:36:11;29.60;;;12.90;;
75054;SDS011;63636;44.746;10.488;2022-12-05T16:38:37;28.42;;;13.25;;
75054;SDS011;63636;44.746;10.488;2022-12-05T16:41:05;30.15;;;13.85;;
75054;SDS011;63636;44.746;10.488;2022-12-05T16:48:43;26.20;;;12.02;;
75054;SDS011;63636;44.746;10.488;2022-12-05T16:53:41;32.20;;;14.40;;
75054;SDS011;63636;44.746;10.488;2022-12-05T16:56:12;31.33;;;14.32;;
75054;SDS011;63636;44.746;10.488;2022-12-05T16:58:38;29.88;;;14.45;;
75054;SDS011;63636;44.746;10.488;2022-12-05T17:01:04;32.28;;;15.23;;
75054;SDS011;63636;44.746;10.488;2022-12-05T17:03:30;30.23;;;14.52;;
75054;SDS011;63636;44.746;10.488;2022-12-05T17:05:56;30.55;;;14.98;;
75054;SDS011;63636;44.746;10.488;2022-12-05T17:08:22;31.65;;;14.00;;